createdAt,value
2018-07-21T00:00:17.084Z,21.70
2018-07-21T00:02:45.627Z,21.60
2018-07-21T00:05:14.064Z,21.60
2018-07-21T00:07:42.492Z,21.60
2018-07-21T00:10:10.889Z,21.50
2018-07-21T00:12:39.304Z,21.50
2018-07-21T00:15:07.729Z,21.50
2018-07-21T00:17:36.131Z,21.40
2018-07-21T00:20:04.959Z,21.30
2018-07-21T00:22:33.377Z,21.20
2018-07-21T00:27:29.881Z,21.00
2018-07-21T00:29:58.485Z,20.90
2018-07-21T00:32:26.900Z,20.90
2018-07-21T00:34:55.364Z,20.90
2018-07-21T00:37:23.761Z,20.80
2018-07-21T00:39:52.196Z,20.80
2018-07-21T00:42:20.595Z,20.70
2018-07-21T00:44:48.988Z,20.70
2018-07-21T00:47:17.399Z,20.70
2018-07-21T00:49:45.806Z,20.60
2018-07-21T00:52:14.218Z,20.50
2018-07-21T00:54:42.720Z,20.40
2018-07-21T00:59:39.261Z,20.50
2018-07-21T01:02:07.652Z,20.50
2018-07-21T01:04:36.040Z,20.50
2018-07-21T01:07:04.789Z,20.50
2018-07-21T01:09:33.182Z,20.40
2018-07-21T01:12:01.593Z,20.40
2018-07-21T01:14:29.968Z,20.50
2018-07-21T01:16:58.604Z,20.40
2018-07-21T01:19:27.036Z,20.20
2018-07-21T01:21:55.436Z,20.20
2018-07-21T01:24:23.867Z,20.10
2018-07-21T01:26:52.269Z,20.10
2018-07-21T01:29:20.683Z,20.10
2018-07-21T01:31:49.130Z,20.00
2018-07-21T01:34:17.544Z,19.90
2018-07-21T01:36:45.996Z,19.90
2018-07-21T01:39:14.473Z,19.90
2018-07-21T01:41:42.865Z,19.90
2018-07-21T01:44:11.475Z,20.00
2018-07-21T01:46:39.857Z,19.90
2018-07-21T01:49:08.244Z,20.00
2018-07-21T01:51:36.637Z,20.00
2018-07-21T01:54:05.153Z,20.00
2018-07-21T01:56:33.572Z,20.00
2018-07-21T01:59:02.147Z,20.10
2018-07-21T02:01:30.584Z,20.10
2018-07-21T02:03:58.968Z,20.10
2018-07-21T02:06:27.352Z,20.10
2018-07-21T02:08:55.756Z,20.10
2018-07-21T02:11:24.348Z,20.10
2018-07-21T02:13:52.773Z,20.10
2018-07-21T02:16:21.164Z,20.00
2018-07-21T02:18:49.556Z,19.90
2018-07-21T02:21:17.932Z,19.90
2018-07-21T02:23:46.321Z,19.90
2018-07-21T02:26:14.734Z,19.90
2018-07-21T02:28:43.169Z,19.90
2018-07-21T02:31:11.725Z,19.80
2018-07-21T02:33:40.104Z,19.80
2018-07-21T02:36:08.492Z,19.70
2018-07-21T02:38:37.116Z,19.60
2018-07-21T02:41:05.576Z,19.60
2018-07-21T02:43:33.962Z,19.50
2018-07-21T02:46:02.380Z,19.60
2018-07-21T02:48:30.786Z,19.60
2018-07-21T02:50:59.205Z,19.40
2018-07-21T02:53:27.584Z,19.30
2018-07-21T02:55:55.963Z,19.20
2018-07-21T02:58:24.372Z,19.20
2018-07-21T03:00:52.784Z,19.30
2018-07-21T03:03:21.184Z,19.30
2018-07-21T03:05:49.573Z,19.30
2018-07-21T03:08:18.169Z,19.30
2018-07-21T03:10:46.574Z,19.20
2018-07-21T03:13:15.925Z,19.10
2018-07-21T03:15:44.354Z,19.10
2018-07-21T03:18:12.744Z,19.10
2018-07-21T03:20:41.128Z,19.10
2018-07-21T03:23:09.531Z,19.00
2018-07-21T03:25:38.129Z,19.00
2018-07-21T03:28:06.513Z,19.00
2018-07-21T03:30:34.908Z,18.90
2018-07-21T03:33:03.336Z,18.90
2018-07-21T03:35:31.735Z,18.70
2018-07-21T03:38:00.421Z,18.60
2018-07-21T03:40:28.841Z,18.40
2018-07-21T03:42:57.504Z,18.30
2018-07-21T03:45:26.267Z,18.30
2018-07-21T03:47:54.814Z,18.30
2018-07-21T03:50:23.237Z,18.20
2018-07-21T03:52:51.615Z,18.30
2018-07-21T03:55:20.030Z,18.30
2018-07-21T03:57:48.417Z,18.20
2018-07-21T04:00:16.802Z,18.20
2018-07-21T04:02:45.263Z,18.10
2018-07-21T04:05:13.689Z,18.10
2018-07-21T04:07:42.068Z,18.10
2018-07-21T04:10:10.561Z,18.10
2018-07-21T04:12:38.956Z,18.00
2018-07-21T04:15:07.459Z,17.80
2018-07-21T04:17:35.877Z,17.80
2018-07-21T04:20:04.295Z,17.60
2018-07-21T04:22:32.707Z,17.60
2018-07-21T04:27:29.197Z,17.80
2018-07-21T04:29:57.608Z,17.80
2018-07-21T04:32:26.578Z,17.70
2018-07-21T04:34:55.049Z,17.70
2018-07-21T04:37:23.464Z,17.60
2018-07-21T04:39:51.873Z,17.70
2018-07-21T04:42:20.281Z,17.80
2018-07-21T04:44:48.668Z,17.80
2018-07-21T04:47:17.085Z,17.80
2018-07-21T04:49:45.459Z,17.90
2018-07-21T04:52:13.920Z,18.00
2018-07-21T04:54:42.336Z,17.90
2018-07-21T04:57:10.738Z,18.10
2018-07-21T04:59:39.134Z,18.20
2018-07-21T05:02:08.279Z,18.40
2018-07-21T05:04:36.771Z,18.70
2018-07-21T05:09:33.320Z,18.80
2018-07-21T05:12:01.708Z,18.90
2018-07-21T05:14:30.160Z,19.10
2018-07-21T05:16:58.579Z,19.40
2018-07-21T05:19:26.963Z,19.60
2018-07-21T05:21:55.385Z,19.60
2018-07-21T05:24:23.825Z,19.80
2018-07-21T05:26:52.225Z,20.30
2018-07-21T05:29:20.661Z,20.90
2018-07-21T05:31:49.052Z,21.50
2018-07-21T05:34:17.460Z,22.10
2018-07-21T05:36:46.009Z,21.80
2018-07-21T05:39:14.501Z,21.40
2018-07-21T05:41:42.905Z,21.30
2018-07-21T05:44:11.515Z,21.60
2018-07-21T05:46:39.920Z,22.00
2018-07-21T05:49:08.638Z,21.70
2018-07-21T05:51:37.069Z,21.50
2018-07-21T05:54:05.508Z,21.30
2018-07-21T05:56:34.090Z,21.00
2018-07-21T05:59:02.494Z,20.80
2018-07-21T06:01:30.905Z,20.60
2018-07-21T06:03:59.572Z,20.40
2018-07-21T06:06:27.970Z,20.50
2018-07-21T06:08:56.497Z,20.70
2018-07-21T06:11:24.892Z,20.90
2018-07-21T06:13:53.339Z,21.20
2018-07-21T06:16:21.758Z,21.50
2018-07-21T06:21:18.360Z,22.10
2018-07-21T06:23:46.807Z,22.20
2018-07-21T06:26:15.200Z,22.30
2018-07-21T06:28:43.591Z,21.90
2018-07-21T06:31:12.312Z,21.60
2018-07-21T06:33:40.717Z,21.60
2018-07-21T06:38:37.264Z,22.30
2018-07-21T06:41:05.701Z,22.30
2018-07-21T06:43:34.119Z,22.40
2018-07-21T06:46:02.517Z,22.30
2018-07-21T06:48:30.965Z,22.40
2018-07-21T06:50:59.563Z,22.20
2018-07-21T06:53:28.063Z,22.20
2018-07-21T06:56:05.179Z,22.40
2018-07-21T06:58:33.884Z,22.50
2018-07-21T07:01:02.309Z,22.70
2018-07-21T07:03:30.743Z,22.80
2018-07-21T07:05:59.412Z,22.70
2018-07-21T07:08:27.820Z,22.80
2018-07-21T07:10:56.229Z,23.00
2018-07-21T07:13:24.664Z,22.80
2018-07-21T07:15:53.094Z,22.90
2018-07-21T07:18:21.631Z,22.70
2018-07-21T07:20:50.392Z,22.60
2018-07-21T07:23:18.811Z,23.00
2018-07-21T07:25:47.236Z,23.00
2018-07-21T07:28:15.657Z,23.20
2018-07-21T07:30:44.120Z,23.50
2018-07-21T07:33:12.791Z,23.70
2018-07-21T07:35:41.168Z,24.20
2018-07-21T07:38:09.900Z,24.20
2018-07-21T07:40:38.276Z,24.00
2018-07-21T07:43:07.449Z,23.50
2018-07-21T07:45:35.932Z,23.50
2018-07-21T07:48:04.429Z,23.20
2018-07-21T07:50:32.832Z,23.20
2018-07-21T07:53:01.647Z,23.40
2018-07-21T07:55:31.806Z,23.50
2018-07-21T07:58:01.911Z,23.60
2018-07-21T08:00:30.715Z,23.60
2018-07-21T08:02:59.991Z,23.50
2018-07-21T08:05:28.649Z,23.70
2018-07-21T08:07:57.112Z,23.50
2018-07-21T08:10:25.958Z,23.50
2018-07-21T08:12:54.365Z,23.70
2018-07-21T08:15:23.200Z,23.70
2018-07-21T08:17:51.811Z,23.70
2018-07-21T08:20:20.234Z,23.90
2018-07-21T08:22:48.668Z,23.80
2018-07-21T08:25:17.148Z,24.10
2018-07-21T08:27:45.533Z,24.20
2018-07-21T08:30:13.944Z,24.60
2018-07-21T08:32:42.692Z,24.90
2018-07-21T08:35:11.109Z,24.90
2018-07-21T08:40:08.757Z,24.70
2018-07-21T08:42:37.176Z,25.10
2018-07-21T08:45:06.322Z,25.50
2018-07-21T08:47:34.764Z,25.70
2018-07-21T08:50:03.256Z,26.10
2018-07-21T08:52:31.873Z,26.30
2018-07-21T08:55:00.389Z,26.50
2018-07-21T08:57:28.796Z,26.80
2018-07-21T08:59:57.279Z,27.10
2018-07-21T09:02:25.662Z,27.10
2018-07-21T09:04:54.280Z,27.00
2018-07-21T09:07:22.708Z,27.30
2018-07-21T09:09:51.093Z,27.30
2018-07-21T09:12:19.613Z,27.30
2018-07-21T09:14:49.253Z,27.40
2018-07-21T09:17:21.099Z,27.30
2018-07-21T09:19:50.670Z,27.40
2018-07-21T09:22:19.337Z,27.60
2018-07-21T09:24:48.357Z,27.50
2018-07-21T09:27:16.815Z,27.30
2018-07-21T09:29:45.508Z,27.90
2018-07-21T09:32:14.140Z,28.80
2018-07-21T09:34:43.171Z,29.70
2018-07-21T09:37:11.632Z,30.70
2018-07-21T09:39:40.041Z,31.30
2018-07-21T09:42:08.749Z,31.00
2018-07-21T09:44:37.129Z,32.10
2018-07-21T09:47:05.914Z,31.70
2018-07-21T09:49:34.886Z,32.30
2018-07-21T09:52:03.408Z,33.00
2018-07-21T09:54:32.086Z,32.90
2018-07-21T09:57:00.569Z,33.00
2018-07-21T09:59:28.956Z,33.40
2018-07-21T10:01:57.378Z,34.00
2018-07-21T10:04:25.829Z,32.30
2018-07-21T10:06:54.253Z,33.50
2018-07-21T10:09:23.353Z,33.80
2018-07-21T10:11:52.209Z,33.50
2018-07-21T10:14:21.265Z,33.70
2018-07-21T10:16:50.423Z,34.70
2018-07-21T10:19:19.484Z,34.90
2018-07-21T10:21:48.675Z,34.30
2018-07-21T10:24:22.857Z,34.10
2018-07-21T10:26:58.130Z,34.60
2018-07-21T10:31:56.699Z,34.40
2018-07-21T10:34:26.238Z,34.40
2018-07-21T10:36:54.792Z,34.90
2018-07-21T10:39:23.842Z,34.20
2018-07-21T10:41:52.526Z,34.00
2018-07-21T10:44:21.523Z,35.10
2018-07-21T10:46:49.957Z,34.10
2018-07-21T10:49:18.601Z,32.60
2018-07-21T10:51:47.037Z,32.40
2018-07-21T10:54:15.425Z,31.90
2018-07-21T10:56:43.893Z,32.60
2018-07-21T10:59:12.273Z,32.70
2018-07-21T11:01:40.772Z,33.30
2018-07-21T11:04:09.189Z,33.20
2018-07-21T11:06:37.688Z,33.40
2018-07-21T11:09:09.479Z,34.60
2018-07-21T11:11:37.920Z,35.10
2018-07-21T11:14:06.344Z,35.00
2018-07-21T11:16:34.860Z,35.30
2018-07-21T11:19:03.515Z,35.20
2018-07-21T11:21:36.577Z,34.30
2018-07-21T11:24:05.321Z,35.10
2018-07-21T11:26:34.465Z,35.80
2018-07-21T11:29:03.147Z,33.90
2018-07-21T11:31:32.359Z,33.90
2018-07-21T11:34:01.169Z,34.50
2018-07-21T11:36:30.210Z,34.60
2018-07-21T11:41:28.283Z,35.50
2018-07-21T11:43:58.065Z,35.70
2018-07-21T11:46:27.301Z,36.40
2018-07-21T11:48:55.875Z,36.70
2018-07-21T11:53:53.375Z,36.80
2018-07-21T11:56:22.326Z,36.50
2018-07-21T11:58:51.197Z,35.70
2018-07-21T12:01:20.408Z,36.00
2018-07-21T12:03:48.854Z,34.80
2018-07-21T12:06:17.496Z,35.00
2018-07-21T12:08:46.119Z,35.80
2018-07-21T12:11:15.174Z,36.00
2018-07-21T12:16:12.666Z,36.70
2018-07-21T12:18:41.081Z,36.40
2018-07-21T12:21:09.749Z,36.20
2018-07-21T12:23:38.364Z,36.00
2018-07-21T12:26:07.304Z,36.20
2018-07-21T12:28:35.921Z,35.80
2018-07-21T12:31:04.513Z,35.00
2018-07-21T12:33:33.427Z,34.90
2018-07-21T12:36:02.055Z,34.50
2018-07-21T12:38:30.841Z,34.80
2018-07-21T12:40:59.477Z,34.70
2018-07-21T12:43:29.379Z,35.00
2018-07-21T12:45:58.109Z,35.10
2018-07-21T12:48:26.787Z,34.80
2018-07-21T12:50:55.591Z,34.40
2018-07-21T12:53:24.216Z,33.50
2018-07-21T12:55:53.083Z,33.00
2018-07-21T12:58:21.708Z,32.80
2018-07-21T13:03:19.382Z,31.70
2018-07-21T13:05:47.927Z,32.00
2018-07-21T13:08:16.868Z,33.20
2018-07-21T13:10:46.645Z,33.80
2018-07-21T13:13:15.380Z,32.80
2018-07-21T13:18:13.881Z,31.30
2018-07-21T13:20:43.019Z,31.90
2018-07-21T13:23:11.722Z,31.90
2018-07-21T13:25:40.861Z,32.80
2018-07-21T13:28:11.336Z,32.40
2018-07-21T13:30:41.205Z,32.60
2018-07-21T13:33:09.971Z,32.00
2018-07-21T13:35:39.049Z,31.70
2018-07-21T13:38:08.721Z,31.70
2018-07-21T13:40:37.721Z,31.70
2018-07-21T13:43:06.647Z,31.30
2018-07-21T13:45:35.794Z,31.50
2018-07-21T13:48:05.007Z,32.30
2018-07-21T13:50:34.025Z,33.00
2018-07-21T13:53:02.980Z,32.40
2018-07-21T13:55:31.733Z,32.60
2018-07-21T13:58:00.637Z,32.60
2018-07-21T14:00:29.248Z,32.00
2018-07-21T14:02:57.856Z,31.90
2018-07-21T14:05:26.239Z,31.60
2018-07-21T14:07:54.653Z,31.30
2018-07-21T14:10:23.089Z,31.10
2018-07-21T14:12:51.524Z,31.00
2018-07-21T14:15:20.145Z,31.20
2018-07-21T14:17:48.541Z,31.10
2018-07-21T14:20:17.193Z,31.10
2018-07-21T14:22:45.662Z,31.80
2018-07-21T14:25:20.693Z,32.00
2018-07-21T14:27:49.259Z,31.20
2018-07-21T14:30:17.700Z,31.40
2018-07-21T14:32:46.104Z,31.20
2018-07-21T14:35:14.642Z,30.90
2018-07-21T14:37:43.068Z,30.90
2018-07-21T14:40:11.564Z,31.40
2018-07-21T14:42:40.108Z,31.90
2018-07-21T14:45:08.658Z,31.90
2018-07-21T14:47:37.251Z,31.80
2018-07-21T14:50:06.353Z,31.40
2018-07-21T14:52:34.783Z,30.90
2018-07-21T14:55:03.356Z,30.40
2018-07-21T14:57:31.893Z,30.30
2018-07-21T15:00:00.329Z,30.20
2018-07-21T15:02:28.864Z,30.60
2018-07-21T15:07:25.468Z,31.50
2018-07-21T15:09:54.016Z,31.50
2018-07-21T15:12:22.770Z,31.70
2018-07-21T15:14:51.257Z,31.80
2018-07-21T15:17:19.700Z,32.00
2018-07-21T15:19:48.283Z,32.30
2018-07-21T15:22:16.700Z,32.40
2018-07-21T15:24:45.168Z,32.40
2018-07-21T15:27:13.875Z,32.10
2018-07-21T15:29:42.423Z,31.70
2018-07-21T15:32:11.037Z,31.10
2018-07-21T15:34:39.765Z,31.00
2018-07-21T15:37:08.892Z,30.80
2018-07-21T15:39:37.363Z,30.80
2018-07-21T15:42:05.965Z,30.80
2018-07-21T15:44:34.505Z,30.80
2018-07-21T15:47:02.918Z,30.60
2018-07-21T15:49:31.386Z,30.50
2018-07-21T15:51:59.857Z,30.30
2018-07-21T15:54:28.304Z,30.30
2018-07-21T15:56:56.836Z,30.20
2018-07-21T15:59:25.266Z,30.20
2018-07-21T16:01:53.923Z,30.40
2018-07-21T16:04:22.609Z,30.40
2018-07-21T16:06:51.126Z,30.30
2018-07-21T16:09:19.824Z,30.40
2018-07-21T16:11:48.270Z,30.30
2018-07-21T16:14:16.689Z,30.10
2018-07-21T16:16:45.168Z,29.90
2018-07-21T16:19:13.596Z,29.80
2018-07-21T16:21:42.028Z,29.70
2018-07-21T16:24:10.605Z,29.70
2018-07-21T16:26:39.097Z,29.90
2018-07-21T16:29:08.009Z,30.00
2018-07-21T16:31:36.557Z,29.90
2018-07-21T16:34:05.257Z,29.70
2018-07-21T16:36:33.875Z,29.50
2018-07-21T16:39:02.344Z,29.30
2018-07-21T16:41:30.900Z,29.20
2018-07-21T16:43:59.439Z,28.90
2018-07-21T16:46:28.130Z,28.60
2018-07-21T16:48:56.600Z,28.30
2018-07-21T16:53:53.497Z,27.90
2018-07-21T16:56:21.898Z,27.80
2018-07-21T16:58:50.601Z,27.80
2018-07-21T17:01:19.332Z,27.70
2018-07-21T17:03:47.760Z,27.70
2018-07-21T17:06:16.220Z,27.70
2018-07-21T17:08:44.691Z,27.70
2018-07-21T17:11:13.126Z,27.60
2018-07-21T17:13:42.087Z,27.60
2018-07-21T17:16:10.761Z,27.50
2018-07-21T17:18:39.238Z,27.40
2018-07-21T17:21:07.652Z,27.40
2018-07-21T17:26:04.490Z,27.40
2018-07-21T17:28:33.332Z,27.30
2018-07-21T17:31:01.796Z,27.20
2018-07-21T17:33:30.193Z,27.20
2018-07-21T17:35:58.684Z,27.00
2018-07-21T17:38:27.132Z,26.90
2018-07-21T17:40:55.565Z,26.80
2018-07-21T17:43:24.084Z,26.70
2018-07-21T17:45:52.732Z,26.70
2018-07-21T17:48:21.536Z,26.70
2018-07-21T17:50:50.001Z,26.70
2018-07-21T17:53:18.512Z,26.60
2018-07-21T17:58:15.121Z,26.50
2018-07-21T18:00:43.588Z,26.40
2018-07-21T18:03:12.180Z,26.40
2018-07-21T18:05:40.653Z,26.40
2018-07-21T18:08:09.082Z,26.40
2018-07-21T18:10:37.766Z,26.50
2018-07-21T18:13:06.288Z,26.50
2018-07-21T18:15:34.799Z,26.60
2018-07-21T18:18:03.246Z,26.70
2018-07-21T18:20:31.924Z,26.60
2018-07-21T18:23:00.366Z,26.60
2018-07-21T18:25:28.866Z,26.60
2018-07-21T18:27:57.361Z,26.50
2018-07-21T18:30:25.808Z,26.50
2018-07-21T18:32:54.369Z,26.40
2018-07-21T18:35:22.845Z,26.40
2018-07-21T18:37:51.288Z,26.40
2018-07-21T18:40:19.930Z,26.40
2018-07-21T18:42:48.383Z,26.30
2018-07-21T18:45:17.119Z,26.30
2018-07-21T18:47:45.532Z,26.30
2018-07-21T18:50:13.969Z,26.20
2018-07-21T18:55:10.513Z,26.10
2018-07-21T18:57:39.177Z,26.00
2018-07-21T19:00:07.653Z,25.90
2018-07-21T19:02:36.048Z,25.90
2018-07-21T19:05:04.618Z,25.90
2018-07-21T19:07:33.087Z,25.90
2018-07-21T19:10:01.585Z,25.80
2018-07-21T19:12:35.526Z,25.70
2018-07-21T19:15:04.245Z,25.60
2018-07-21T19:17:33.014Z,25.60
2018-07-21T19:20:07.073Z,25.50
2018-07-21T19:22:35.580Z,25.50
2018-07-21T19:25:09.781Z,25.40
2018-07-21T19:30:07.027Z,25.30
2018-07-21T19:32:40.998Z,25.30
2018-07-21T19:35:10.466Z,25.30
2018-07-21T19:37:44.278Z,25.20
2018-07-21T19:42:40.963Z,25.10
2018-07-21T19:45:09.406Z,25.00
2018-07-21T19:50:06.168Z,24.90
2018-07-21T19:52:34.709Z,24.80
2018-07-21T19:55:03.125Z,24.70
2018-07-21T19:57:31.637Z,24.60
2018-07-21T20:00:00.177Z,24.60
2018-07-21T20:02:28.869Z,24.50
2018-07-21T20:04:57.281Z,24.50
2018-07-21T20:07:26.225Z,24.40
2018-07-21T20:09:54.636Z,24.30
2018-07-21T20:12:23.069Z,24.20
2018-07-21T20:14:51.712Z,24.10
2018-07-21T20:17:20.219Z,24.10
2018-07-21T20:19:48.577Z,23.90
2018-07-21T20:22:17.141Z,23.90
2018-07-21T20:24:45.673Z,23.90
2018-07-21T20:27:14.128Z,23.90
2018-07-21T20:29:42.853Z,23.90
2018-07-21T20:32:11.456Z,23.80
2018-07-21T20:34:39.886Z,23.80
2018-07-21T20:37:08.371Z,23.80
2018-07-21T20:39:36.913Z,23.70
2018-07-21T20:42:05.518Z,23.70
2018-07-21T20:44:34.452Z,23.60
2018-07-21T20:47:02.868Z,23.50
2018-07-21T20:49:31.494Z,23.40
2018-07-21T20:52:00.096Z,23.40
2018-07-21T20:54:28.530Z,23.20
2018-07-21T20:56:57.530Z,23.20
2018-07-21T20:59:25.934Z,23.10
2018-07-21T21:01:54.477Z,23.00
2018-07-21T21:04:23.560Z,22.80
2018-07-21T21:06:52.013Z,22.80
2018-07-21T21:09:20.401Z,22.80
2018-07-21T21:11:48.808Z,22.70
2018-07-21T21:14:17.560Z,22.60
2018-07-21T21:16:46.053Z,22.60
2018-07-21T21:19:14.460Z,22.60
2018-07-21T21:21:42.912Z,22.50
2018-07-21T21:24:11.313Z,22.50
2018-07-21T21:26:39.736Z,22.50
2018-07-21T21:29:08.193Z,22.40
2018-07-21T21:31:36.614Z,22.30
2018-07-21T21:36:33.203Z,22.20
2018-07-21T21:39:01.788Z,22.20
2018-07-21T21:41:30.213Z,22.10
2018-07-21T21:43:58.800Z,22.10
2018-07-21T21:46:27.221Z,22.00
2018-07-21T21:48:55.634Z,22.00
2018-07-21T21:51:24.254Z,22.00
2018-07-21T21:53:52.671Z,22.00
2018-07-21T21:56:21.112Z,21.90
2018-07-21T21:58:49.614Z,21.90
2018-07-21T22:01:18.056Z,21.80
2018-07-21T22:03:46.444Z,21.80
2018-07-21T22:08:43.801Z,21.80
2018-07-21T22:11:12.258Z,21.80
2018-07-21T22:13:41.083Z,21.70
2018-07-21T22:16:09.565Z,21.70
2018-07-21T22:18:37.983Z,21.60
2018-07-21T22:21:06.578Z,21.50
2018-07-21T22:23:35.033Z,21.50
2018-07-21T22:26:03.507Z,21.40
2018-07-21T22:28:32.013Z,21.40
2018-07-21T22:31:01.749Z,21.40
2018-07-21T22:33:30.147Z,21.40
2018-07-21T22:35:58.638Z,21.30
2018-07-21T22:38:27.209Z,21.20
2018-07-21T22:40:55.609Z,21.10
2018-07-21T22:43:24.021Z,21.10
2018-07-21T22:45:52.437Z,21.10
2018-07-21T22:48:20.841Z,21.00
2018-07-21T22:50:49.245Z,21.10
2018-07-21T22:53:17.653Z,21.00
2018-07-21T22:55:46.200Z,21.00
2018-07-21T22:58:14.662Z,21.00
2018-07-21T23:00:43.104Z,20.90
2018-07-21T23:03:11.636Z,20.90
2018-07-21T23:05:40.081Z,20.90
2018-07-21T23:08:08.455Z,20.80
2018-07-21T23:10:36.885Z,20.80
2018-07-21T23:13:05.304Z,20.80
2018-07-21T23:15:33.843Z,20.80
2018-07-21T23:18:02.278Z,20.70
2018-07-21T23:20:30.717Z,20.70
2018-07-21T23:22:59.143Z,20.60
2018-07-21T23:25:27.551Z,20.60
2018-07-21T23:27:56.043Z,20.60
2018-07-21T23:30:24.518Z,20.50
2018-07-21T23:32:52.992Z,20.50
2018-07-21T23:35:21.541Z,20.40
2018-07-21T23:37:49.944Z,20.40
2018-07-21T23:40:18.376Z,20.40
2018-07-21T23:42:47.085Z,20.40
2018-07-21T23:45:15.492Z,20.40
2018-07-21T23:47:43.921Z,20.40
2018-07-21T23:50:12.337Z,20.30
2018-07-21T23:52:40.745Z,20.30
2018-07-21T23:55:09.767Z,20.20
2018-07-21T23:57:38.743Z,20.20
